sensor_id;sensor_type;location;lat;lon;timestamp;P1;durP1;ratioP1;P2;durP2;ratioP2
40945;SDS011;55635;50.264;11.918;2023-11-18T00:00:21;2.83;;;2.00;;
40945;SDS011;55635;50.264;11.918;2023-11-18T00:03:03;3.55;;;2.65;;
40945;SDS011;55635;50.264;11.918;2023-11-18T00:05:45;3.55;;;2.90;;
40945;SDS011;55635;50.264;11.918;2023-11-18T00:08:26;2.47;;;2.28;;
40945;SDS011;55635;50.264;11.918;2023-11-18T00:11:07;2.75;;;2.35;;
40945;SDS011;55635;50.264;11.918;2023-11-18T00:13:51;3.08;;;2.60;;
40945;SDS011;55635;50.264;11.918;2023-11-18T00:16:32;2.70;;;2.50;;
40945;SDS011;55635;50.264;11.918;2023-11-18T00:19:14;2.55;;;2.35;;
40945;SDS011;55635;50.264;11.918;2023-11-18T00:21:55;3.83;;;2.58;;
40945;SDS011;55635;50.264;11.918;2023-11-18T00:24:36;3.25;;;2.80;;
40945;SDS011;55635;50.264;11.918;2023-11-18T00:27:18;2.95;;;2.20;;
40945;SDS011;55635;50.264;11.918;2023-11-18T00:29:59;3.70;;;2.97;;
40945;SDS011;55635;50.264;11.918;2023-11-18T00:32:40;3.67;;;2.80;;
40945;SDS011;55635;50.264;11.918;2023-11-18T00:35:21;4.07;;;2.97;;
40945;SDS011;55635;50.264;11.918;2023-11-18T00:38:02;9.73;;;2.83;;
40945;SDS011;55635;50.264;11.918;2023-11-18T00:40:44;5.97;;;2.97;;
40945;SDS011;55635;50.264;11.918;2023-11-18T00:43:25;3.75;;;3.05;;
40945;SDS011;55635;50.264;11.918;2023-11-18T00:46:07;4.90;;;3.40;;
40945;SDS011;55635;50.264;11.918;2023-11-18T00:48:48;4.13;;;3.55;;
40945;SDS011;55635;50.264;11.918;2023-11-18T00:51:30;4.95;;;3.50;;
40945;SDS011;55635;50.264;11.918;2023-11-18T00:54:11;5.50;;;3.30;;
40945;SDS011;55635;50.264;11.918;2023-11-18T00:56:52;3.78;;;2.92;;
40945;SDS011;55635;50.264;11.918;2023-11-18T00:59:34;3.92;;;2.92;;
40945;SDS011;55635;50.264;11.918;2023-11-18T01:02:15;3.58;;;2.78;;
40945;SDS011;55635;50.264;11.918;2023-11-18T01:04:58;3.50;;;2.50;;
40945;SDS011;55635;50.264;11.918;2023-11-18T01:07:39;4.07;;;3.10;;
40945;SDS011;55635;50.264;11.918;2023-11-18T01:10:23;3.53;;;2.60;;
40945;SDS011;55635;50.264;11.918;2023-11-18T01:13:05;2.97;;;2.65;;
40945;SDS011;55635;50.264;11.918;2023-11-18T01:15:46;6.05;;;2.67;;
40945;SDS011;55635;50.264;11.918;2023-11-18T01:18:28;4.38;;;2.75;;
40945;SDS011;55635;50.264;11.918;2023-11-18T01:21:09;2.60;;;2.40;;
40945;SDS011;55635;50.264;11.918;2023-11-18T01:23:51;3.13;;;2.67;;
40945;SDS011;55635;50.264;11.918;2023-11-18T01:26:32;2.67;;;2.47;;
40945;SDS011;55635;50.264;11.918;2023-11-18T01:29:14;2.70;;;2.38;;
40945;SDS011;55635;50.264;11.918;2023-11-18T01:31:56;2.88;;;2.15;;
40945;SDS011;55635;50.264;11.918;2023-11-18T01:34:37;3.38;;;2.70;;
40945;SDS011;55635;50.264;11.918;2023-11-18T01:37:23;5.18;;;3.05;;
40945;SDS011;55635;50.264;11.918;2023-11-18T01:40:05;7.05;;;3.20;;
40945;SDS011;55635;50.264;11.918;2023-11-18T01:42:53;4.40;;;3.40;;
40945;SDS011;55635;50.264;11.918;2023-11-18T01:45:34;3.63;;;3.25;;
40945;SDS011;55635;50.264;11.918;2023-11-18T01:48:16;5.13;;;2.75;;
40945;SDS011;55635;50.264;11.918;2023-11-18T01:50:57;6.85;;;3.00;;
40945;SDS011;55635;50.264;11.918;2023-11-18T01:53:38;4.03;;;3.30;;
40945;SDS011;55635;50.264;11.918;2023-11-18T01:56:23;5.88;;;3.38;;
40945;SDS011;55635;50.264;11.918;2023-11-18T01:59:05;4.28;;;3.13;;
40945;SDS011;55635;50.264;11.918;2023-11-18T02:01:53;4.30;;;2.90;;
40945;SDS011;55635;50.264;11.918;2023-11-18T02:04:38;6.53;;;3.10;;
40945;SDS011;55635;50.264;11.918;2023-11-18T02:07:20;4.50;;;3.30;;
40945;SDS011;55635;50.264;11.918;2023-11-18T02:10:03;6.18;;;3.10;;
40945;SDS011;55635;50.264;11.918;2023-11-18T02:13:04;3.38;;;3.05;;
40945;SDS011;55635;50.264;11.918;2023-11-18T02:15:56;5.00;;;3.33;;
40945;SDS011;55635;50.264;11.918;2023-11-18T02:18:38;5.85;;;3.42;;
40945;SDS011;55635;50.264;11.918;2023-11-18T02:21:21;4.50;;;3.53;;
40945;SDS011;55635;50.264;11.918;2023-11-18T02:24:03;3.78;;;3.33;;
40945;SDS011;55635;50.264;11.918;2023-11-18T02:26:45;7.18;;;3.67;;
40945;SDS011;55635;50.264;11.918;2023-11-18T02:29:26;7.07;;;3.25;;
40945;SDS011;55635;50.264;11.918;2023-11-18T02:38:39;3.90;;;3.50;;
40945;SDS011;55635;50.264;11.918;2023-11-18T02:41:30;4.93;;;3.40;;
40945;SDS011;55635;50.264;11.918;2023-11-18T02:44:12;5.95;;;3.58;;
40945;SDS011;55635;50.264;11.918;2023-11-18T02:46:58;5.07;;;3.25;;
40945;SDS011;55635;50.264;11.918;2023-11-18T02:49:40;4.03;;;3.30;;
40945;SDS011;55635;50.264;11.918;2023-11-18T02:52:20;5.75;;;3.40;;
40945;SDS011;55635;50.264;11.918;2023-11-18T02:55:03;5.10;;;3.35;;
40945;SDS011;55635;50.264;11.918;2023-11-18T02:57:47;6.63;;;3.42;;
40945;SDS011;55635;50.264;11.918;2023-11-18T03:00:29;3.55;;;3.00;;
40945;SDS011;55635;50.264;11.918;2023-11-18T03:03:10;5.35;;;3.70;;
40945;SDS011;55635;50.264;11.918;2023-11-18T03:05:51;4.90;;;3.75;;
40945;SDS011;55635;50.264;11.918;2023-11-18T03:08:32;4.40;;;3.67;;
40945;SDS011;55635;50.264;11.918;2023-11-18T03:11:14;3.38;;;2.80;;
40945;SDS011;55635;50.264;11.918;2023-11-18T03:13:55;4.00;;;2.58;;
40945;SDS011;55635;50.264;11.918;2023-11-18T03:16:37;3.55;;;2.42;;
40945;SDS011;55635;50.264;11.918;2023-11-18T03:19:19;4.60;;;2.60;;
40945;SDS011;55635;50.264;11.918;2023-11-18T03:22:03;3.92;;;2.50;;
40945;SDS011;55635;50.264;11.918;2023-11-18T03:24:44;3.28;;;2.35;;
40945;SDS011;55635;50.264;11.918;2023-11-18T03:27:25;3.92;;;2.72;;
40945;SDS011;55635;50.264;11.918;2023-11-18T03:30:07;3.75;;;2.30;;
40945;SDS011;55635;50.264;11.918;2023-11-18T03:32:50;3.22;;;2.20;;
40945;SDS011;55635;50.264;11.918;2023-11-18T03:35:31;2.55;;;2.35;;
40945;SDS011;55635;50.264;11.918;2023-11-18T03:38:12;2.90;;;2.15;;
40945;SDS011;55635;50.264;11.918;2023-11-18T03:40:53;2.72;;;2.40;;
40945;SDS011;55635;50.264;11.918;2023-11-18T03:43:36;3.53;;;2.55;;
40945;SDS011;55635;50.264;11.918;2023-11-18T03:46:17;2.60;;;2.13;;
40945;SDS011;55635;50.264;11.918;2023-11-18T03:48:59;3.10;;;2.13;;
40945;SDS011;55635;50.264;11.918;2023-11-18T03:51:41;4.57;;;2.55;;
40945;SDS011;55635;50.264;11.918;2023-11-18T03:54:22;4.63;;;3.15;;
40945;SDS011;55635;50.264;11.918;2023-11-18T03:57:03;5.47;;;3.28;;
40945;SDS011;55635;50.264;11.918;2023-11-18T03:59:45;5.47;;;3.28;;
40945;SDS011;55635;50.264;11.918;2023-11-18T04:02:26;4.05;;;3.60;;
40945;SDS011;55635;50.264;11.918;2023-11-18T04:05:09;4.53;;;3.42;;
40945;SDS011;55635;50.264;11.918;2023-11-18T04:07:50;4.07;;;3.50;;
40945;SDS011;55635;50.264;11.918;2023-11-18T04:10:31;5.13;;;3.30;;
40945;SDS011;55635;50.264;11.918;2023-11-18T04:13:13;5.85;;;3.33;;
40945;SDS011;55635;50.264;11.918;2023-11-18T04:15:54;5.10;;;3.63;;
40945;SDS011;55635;50.264;11.918;2023-11-18T04:18:35;7.68;;;3.97;;
40945;SDS011;55635;50.264;11.918;2023-11-18T04:21:16;4.47;;;3.60;;
40945;SDS011;55635;50.264;11.918;2023-11-18T04:23:58;5.68;;;3.40;;
40945;SDS011;55635;50.264;11.918;2023-11-18T04:26:39;6.40;;;3.50;;
40945;SDS011;55635;50.264;11.918;2023-11-18T04:29:20;6.85;;;3.75;;
40945;SDS011;55635;50.264;11.918;2023-11-18T04:32:03;4.70;;;3.65;;
40945;SDS011;55635;50.264;11.918;2023-11-18T04:34:44;4.68;;;3.38;;
40945;SDS011;55635;50.264;11.918;2023-11-18T04:37:26;5.28;;;3.80;;
40945;SDS011;55635;50.264;11.918;2023-11-18T04:40:07;5.97;;;4.15;;
40945;SDS011;55635;50.264;11.918;2023-11-18T04:42:54;5.80;;;4.70;;
40945;SDS011;55635;50.264;11.918;2023-11-18T04:45:35;5.55;;;3.75;;
40945;SDS011;55635;50.264;11.918;2023-11-18T04:48:17;5.15;;;3.80;;
40945;SDS011;55635;50.264;11.918;2023-11-18T04:50:59;5.25;;;4.13;;
40945;SDS011;55635;50.264;11.918;2023-11-18T04:53:44;6.18;;;4.00;;
40945;SDS011;55635;50.264;11.918;2023-11-18T04:56:25;6.00;;;3.55;;
40945;SDS011;55635;50.264;11.918;2023-11-18T04:59:06;4.93;;;3.83;;
40945;SDS011;55635;50.264;11.918;2023-11-18T05:01:47;5.15;;;3.83;;
40945;SDS011;55635;50.264;11.918;2023-11-18T05:04:29;6.50;;;4.50;;
40945;SDS011;55635;50.264;11.918;2023-11-18T05:07:10;7.82;;;4.65;;
40945;SDS011;55635;50.264;11.918;2023-11-18T05:09:51;6.45;;;4.25;;
40945;SDS011;55635;50.264;11.918;2023-11-18T05:12:32;6.57;;;4.70;;
40945;SDS011;55635;50.264;11.918;2023-11-18T05:15:13;6.13;;;4.60;;
40945;SDS011;55635;50.264;11.918;2023-11-18T05:17:55;5.72;;;4.40;;
40945;SDS011;55635;50.264;11.918;2023-11-18T05:20:36;5.70;;;3.90;;
40945;SDS011;55635;50.264;11.918;2023-11-18T05:23:17;6.55;;;4.30;;
40945;SDS011;55635;50.264;11.918;2023-11-18T05:25:58;5.57;;;4.68;;
40945;SDS011;55635;50.264;11.918;2023-11-18T05:28:39;4.55;;;3.90;;
40945;SDS011;55635;50.264;11.918;2023-11-18T05:31:20;5.78;;;4.45;;
40945;SDS011;55635;50.264;11.918;2023-11-18T05:34:01;5.88;;;4.50;;
40945;SDS011;55635;50.264;11.918;2023-11-18T05:36:43;5.82;;;4.35;;
40945;SDS011;55635;50.264;11.918;2023-11-18T05:39:24;4.63;;;4.22;;
40945;SDS011;55635;50.264;11.918;2023-11-18T05:42:08;9.95;;;4.32;;
40945;SDS011;55635;50.264;11.918;2023-11-18T05:44:51;6.32;;;4.80;;
40945;SDS011;55635;50.264;11.918;2023-11-18T05:47:39;9.48;;;4.50;;
40945;SDS011;55635;50.264;11.918;2023-11-18T05:50:20;5.75;;;4.45;;
40945;SDS011;55635;50.264;11.918;2023-11-18T05:53:01;4.47;;;4.00;;
40945;SDS011;55635;50.264;11.918;2023-11-18T05:55:43;5.68;;;4.38;;
40945;SDS011;55635;50.264;11.918;2023-11-18T05:58:23;8.40;;;5.07;;
40945;SDS011;55635;50.264;11.918;2023-11-18T06:01:05;4.60;;;3.97;;
40945;SDS011;55635;50.264;11.918;2023-11-18T06:03:51;5.07;;;4.15;;
40945;SDS011;55635;50.264;11.918;2023-11-18T06:06:31;6.22;;;4.13;;
40945;SDS011;55635;50.264;11.918;2023-11-18T06:09:12;6.03;;;4.30;;
40945;SDS011;55635;50.264;11.918;2023-11-18T06:12:00;6.03;;;4.32;;
40945;SDS011;55635;50.264;11.918;2023-11-18T06:14:42;6.10;;;4.60;;
40945;SDS011;55635;50.264;11.918;2023-11-18T06:17:25;6.22;;;4.75;;
40945;SDS011;55635;50.264;11.918;2023-11-18T06:20:08;5.90;;;4.45;;
40945;SDS011;55635;50.264;11.918;2023-11-18T06:22:50;8.43;;;5.30;;
40945;SDS011;55635;50.264;11.918;2023-11-18T06:25:32;9.13;;;5.65;;
40945;SDS011;55635;50.264;11.918;2023-11-18T06:28:15;10.20;;;5.43;;
40945;SDS011;55635;50.264;11.918;2023-11-18T06:30:56;8.52;;;5.03;;
40945;SDS011;55635;50.264;11.918;2023-11-18T06:36:29;5.85;;;4.53;;
40945;SDS011;55635;50.264;11.918;2023-11-18T06:39:11;7.05;;;5.07;;
40945;SDS011;55635;50.264;11.918;2023-11-18T06:41:53;7.47;;;5.15;;
40945;SDS011;55635;50.264;11.918;2023-11-18T06:44:34;8.18;;;5.38;;
40945;SDS011;55635;50.264;11.918;2023-11-18T06:47:15;9.10;;;5.85;;
40945;SDS011;55635;50.264;11.918;2023-11-18T06:49:59;7.53;;;5.60;;
40945;SDS011;55635;50.264;11.918;2023-11-18T06:52:41;9.55;;;5.93;;
40945;SDS011;55635;50.264;11.918;2023-11-18T06:55:22;7.40;;;5.57;;
40945;SDS011;55635;50.264;11.918;2023-11-18T06:58:03;10.35;;;6.05;;
40945;SDS011;55635;50.264;11.918;2023-11-18T07:00:44;8.73;;;6.15;;
40945;SDS011;55635;50.264;11.918;2023-11-18T07:03:25;8.77;;;6.00;;
40945;SDS011;55635;50.264;11.918;2023-11-18T07:06:07;8.27;;;6.43;;
40945;SDS011;55635;50.264;11.918;2023-11-18T07:08:49;9.45;;;6.47;;
40945;SDS011;55635;50.264;11.918;2023-11-18T07:11:31;10.27;;;7.00;;
40945;SDS011;55635;50.264;11.918;2023-11-18T07:14:12;12.43;;;7.10;;
40945;SDS011;55635;50.264;11.918;2023-11-18T07:16:54;11.32;;;7.47;;
40945;SDS011;55635;50.264;11.918;2023-11-18T07:19:35;11.60;;;6.63;;
40945;SDS011;55635;50.264;11.918;2023-11-18T07:22:16;10.90;;;6.82;;
40945;SDS011;55635;50.264;11.918;2023-11-18T07:24:57;11.43;;;7.05;;
40945;SDS011;55635;50.264;11.918;2023-11-18T07:27:39;13.30;;;7.93;;
40945;SDS011;55635;50.264;11.918;2023-11-18T07:30:20;10.50;;;7.80;;
40945;SDS011;55635;50.264;11.918;2023-11-18T07:33:03;11.70;;;8.45;;
40945;SDS011;55635;50.264;11.918;2023-11-18T07:35:45;13.55;;;9.40;;
40945;SDS011;55635;50.264;11.918;2023-11-18T07:38:32;13.68;;;9.00;;
40945;SDS011;55635;50.264;11.918;2023-11-18T07:41:14;14.27;;;9.25;;
40945;SDS011;55635;50.264;11.918;2023-11-18T07:44:03;11.85;;;7.78;;
40945;SDS011;55635;50.264;11.918;2023-11-18T07:46:50;11.10;;;7.55;;
40945;SDS011;55635;50.264;11.918;2023-11-18T07:49:35;11.25;;;7.50;;
40945;SDS011;55635;50.264;11.918;2023-11-18T07:52:16;9.65;;;7.20;;
40945;SDS011;55635;50.264;11.918;2023-11-18T07:55:00;10.88;;;7.45;;
40945;SDS011;55635;50.264;11.918;2023-11-18T07:57:41;10.18;;;7.20;;
40945;SDS011;55635;50.264;11.918;2023-11-18T08:00:23;10.15;;;7.38;;
40945;SDS011;55635;50.264;11.918;2023-11-18T08:03:05;12.32;;;7.35;;
40945;SDS011;55635;50.264;11.918;2023-11-18T08:05:53;13.18;;;7.43;;
40945;SDS011;55635;50.264;11.918;2023-11-18T08:08:34;11.82;;;8.73;;
40945;SDS011;55635;50.264;11.918;2023-11-18T08:11:19;10.77;;;7.57;;
40945;SDS011;55635;50.264;11.918;2023-11-18T08:14:00;11.13;;;7.93;;
40945;SDS011;55635;50.264;11.918;2023-11-18T08:16:42;9.93;;;7.47;;
40945;SDS011;55635;50.264;11.918;2023-11-18T08:19:23;10.90;;;7.60;;
40945;SDS011;55635;50.264;11.918;2023-11-18T08:22:04;10.73;;;7.90;;
40945;SDS011;55635;50.264;11.918;2023-11-18T08:24:46;14.18;;;8.07;;
40945;SDS011;55635;50.264;11.918;2023-11-18T08:27:28;12.10;;;8.10;;
40945;SDS011;55635;50.264;11.918;2023-11-18T08:30:10;12.43;;;8.85;;
40945;SDS011;55635;50.264;11.918;2023-11-18T08:32:53;12.35;;;8.55;;
40945;SDS011;55635;50.264;11.918;2023-11-18T08:35:34;15.93;;;9.13;;
40945;SDS011;55635;50.264;11.918;2023-11-18T08:38:16;13.02;;;9.23;;
40945;SDS011;55635;50.264;11.918;2023-11-18T08:40:58;14.20;;;8.70;;
40945;SDS011;55635;50.264;11.918;2023-11-18T08:43:39;9.73;;;7.05;;
40945;SDS011;55635;50.264;11.918;2023-11-18T08:46:26;11.15;;;7.82;;
40945;SDS011;55635;50.264;11.918;2023-11-18T08:49:08;14.85;;;6.55;;
40945;SDS011;55635;50.264;11.918;2023-11-18T08:51:51;8.90;;;6.25;;
40945;SDS011;55635;50.264;11.918;2023-11-18T08:54:35;8.73;;;6.47;;
40945;SDS011;55635;50.264;11.918;2023-11-18T08:57:18;8.77;;;6.60;;
40945;SDS011;55635;50.264;11.918;2023-11-18T09:00:05;8.15;;;5.93;;
40945;SDS011;55635;50.264;11.918;2023-11-18T09:03:07;10.57;;;5.72;;
40945;SDS011;55635;50.264;11.918;2023-11-18T09:05:48;7.35;;;5.70;;
40945;SDS011;55635;50.264;11.918;2023-11-18T09:08:39;9.05;;;5.18;;
40945;SDS011;55635;50.264;11.918;2023-11-18T09:11:22;12.43;;;5.63;;
40945;SDS011;55635;50.264;11.918;2023-11-18T09:14:07;7.30;;;5.35;;
40945;SDS011;55635;50.264;11.918;2023-11-18T09:16:48;6.80;;;5.50;;
40945;SDS011;55635;50.264;11.918;2023-11-18T09:19:30;8.65;;;5.18;;
40945;SDS011;55635;50.264;11.918;2023-11-18T09:22:11;7.90;;;5.80;;
40945;SDS011;55635;50.264;11.918;2023-11-18T09:24:53;6.68;;;5.70;;
40945;SDS011;55635;50.264;11.918;2023-11-18T09:27:35;7.95;;;5.80;;
40945;SDS011;55635;50.264;11.918;2023-11-18T09:30:16;6.03;;;5.40;;
40945;SDS011;55635;50.264;11.918;2023-11-18T09:32:59;10.77;;;6.00;;
40945;SDS011;55635;50.264;11.918;2023-11-18T09:35:42;8.07;;;5.38;;
40945;SDS011;55635;50.264;11.918;2023-11-18T09:38:24;5.93;;;4.50;;
40945;SDS011;55635;50.264;11.918;2023-11-18T09:41:15;7.18;;;5.03;;
40945;SDS011;55635;50.264;11.918;2023-11-18T09:43:57;5.63;;;4.72;;
40945;SDS011;55635;50.264;11.918;2023-11-18T09:46:42;5.15;;;4.20;;
40945;SDS011;55635;50.264;11.918;2023-11-18T09:49:39;5.93;;;4.47;;
40945;SDS011;55635;50.264;11.918;2023-11-18T09:52:25;7.35;;;4.28;;
40945;SDS011;55635;50.264;11.918;2023-11-18T09:55:12;4.32;;;3.58;;
40945;SDS011;55635;50.264;11.918;2023-11-18T09:58:16;4.70;;;3.85;;
40945;SDS011;55635;50.264;11.918;2023-11-18T10:01:04;3.88;;;3.50;;
40945;SDS011;55635;50.264;11.918;2023-11-18T10:03:45;4.22;;;3.83;;
40945;SDS011;55635;50.264;11.918;2023-11-18T10:06:26;4.35;;;3.70;;
40945;SDS011;55635;50.264;11.918;2023-11-18T10:09:08;5.88;;;3.28;;
40945;SDS011;55635;50.264;11.918;2023-11-18T10:11:56;3.55;;;3.25;;
40945;SDS011;55635;50.264;11.918;2023-11-18T10:14:45;4.20;;;3.63;;
40945;SDS011;55635;50.264;11.918;2023-11-18T10:17:26;3.65;;;3.30;;
40945;SDS011;55635;50.264;11.918;2023-11-18T10:20:07;4.13;;;3.33;;
40945;SDS011;55635;50.264;11.918;2023-11-18T10:23:11;4.65;;;3.35;;
40945;SDS011;55635;50.264;11.918;2023-11-18T10:26:02;5.85;;;3.50;;
40945;SDS011;55635;50.264;11.918;2023-11-18T10:28:44;3.70;;;3.40;;
40945;SDS011;55635;50.264;11.918;2023-11-18T10:31:26;3.40;;;3.10;;
40945;SDS011;55635;50.264;11.918;2023-11-18T10:34:08;5.57;;;3.35;;
40945;SDS011;55635;50.264;11.918;2023-11-18T10:37:03;5.18;;;3.17;;
40945;SDS011;55635;50.264;11.918;2023-11-18T10:39:47;3.17;;;2.95;;
40945;SDS011;55635;50.264;11.918;2023-11-18T10:42:31;4.60;;;3.08;;
40945;SDS011;55635;50.264;11.918;2023-11-18T10:45:13;4.50;;;2.97;;
40945;SDS011;55635;50.264;11.918;2023-11-18T10:48:05;5.05;;;3.10;;
40945;SDS011;55635;50.264;11.918;2023-11-18T10:50:47;3.38;;;3.08;;
40945;SDS011;55635;50.264;11.918;2023-11-18T10:53:30;5.53;;;3.03;;
40945;SDS011;55635;50.264;11.918;2023-11-18T10:56:19;3.88;;;3.05;;
40945;SDS011;55635;50.264;11.918;2023-11-18T10:59:06;3.65;;;2.92;;
40945;SDS011;55635;50.264;11.918;2023-11-18T11:01:47;3.42;;;3.10;;
40945;SDS011;55635;50.264;11.918;2023-11-18T11:04:29;2.83;;;2.60;;
40945;SDS011;55635;50.264;11.918;2023-11-18T11:07:24;4.20;;;2.63;;
40945;SDS011;55635;50.264;11.918;2023-11-18T11:10:06;6.75;;;4.22;;
40945;SDS011;55635;50.264;11.918;2023-11-18T11:12:49;4.38;;;3.65;;
40945;SDS011;55635;50.264;11.918;2023-11-18T11:15:35;4.72;;;3.42;;
40945;SDS011;55635;50.264;11.918;2023-11-18T11:18:24;3.38;;;3.08;;
40945;SDS011;55635;50.264;11.918;2023-11-18T11:21:15;4.40;;;3.47;;
40945;SDS011;55635;50.264;11.918;2023-11-18T11:24:04;4.38;;;2.88;;
40945;SDS011;55635;50.264;11.918;2023-11-18T11:29:54;3.28;;;2.97;;
40945;SDS011;55635;50.264;11.918;2023-11-18T11:32:51;3.05;;;2.60;;
40945;SDS011;55635;50.264;11.918;2023-11-18T11:35:36;2.63;;;2.33;;
40945;SDS011;55635;50.264;11.918;2023-11-18T11:38:25;4.97;;;2.67;;
40945;SDS011;55635;50.264;11.918;2023-11-18T11:41:09;3.03;;;2.40;;
40945;SDS011;55635;50.264;11.918;2023-11-18T11:43:54;6.35;;;2.83;;
40945;SDS011;55635;50.264;11.918;2023-11-18T11:46:38;2.95;;;2.70;;
40945;SDS011;55635;50.264;11.918;2023-11-18T11:49:22;2.92;;;2.72;;
40945;SDS011;55635;50.264;11.918;2023-11-18T11:52:15;3.28;;;2.38;;
40945;SDS011;55635;50.264;11.918;2023-11-18T11:55:19;4.22;;;2.70;;
40945;SDS011;55635;50.264;11.918;2023-11-18T11:58:27;4.43;;;2.65;;
40945;SDS011;55635;50.264;11.918;2023-11-18T12:04:14;3.10;;;2.40;;
40945;SDS011;55635;50.264;11.918;2023-11-18T12:07:04;2.42;;;2.22;;
40945;SDS011;55635;50.264;11.918;2023-11-18T12:09:56;3.15;;;2.78;;
40945;SDS011;55635;50.264;11.918;2023-11-18T12:12:41;3.40;;;2.53;;
40945;SDS011;55635;50.264;11.918;2023-11-18T12:15:47;4.40;;;2.30;;
40945;SDS011;55635;50.264;11.918;2023-11-18T12:18:49;3.90;;;2.97;;
40945;SDS011;55635;50.264;11.918;2023-11-18T12:22:17;3.67;;;3.20;;
40945;SDS011;55635;50.264;11.918;2023-11-18T12:27:56;3.92;;;2.72;;
40945;SDS011;55635;50.264;11.918;2023-11-18T12:30:47;3.55;;;2.80;;
40945;SDS011;55635;50.264;11.918;2023-11-18T12:34:23;2.28;;;2.08;;
40945;SDS011;55635;50.264;11.918;2023-11-18T12:36:51;4.00;;;2.25;;
40945;SDS011;55635;50.264;11.918;2023-11-18T12:43:04;2.63;;;1.70;;
40945;SDS011;55635;50.264;11.918;2023-11-18T12:49:30;1.58;;;1.40;;
40945;SDS011;55635;50.264;11.918;2023-11-18T12:52:12;2.00;;;1.80;;
40945;SDS011;55635;50.264;11.918;2023-11-18T12:54:55;1.90;;;1.70;;
40945;SDS011;55635;50.264;11.918;2023-11-18T12:57:38;2.72;;;1.70;;
40945;SDS011;55635;50.264;11.918;2023-11-18T13:00:29;2.17;;;1.65;;
40945;SDS011;55635;50.264;11.918;2023-11-18T13:03:14;1.98;;;1.55;;
40945;SDS011;55635;50.264;11.918;2023-11-18T13:05:55;2.58;;;1.98;;
40945;SDS011;55635;50.264;11.918;2023-11-18T13:08:36;2.63;;;1.40;;
40945;SDS011;55635;50.264;11.918;2023-11-18T13:11:19;2.35;;;1.88;;
40945;SDS011;55635;50.264;11.918;2023-11-18T13:14:03;2.13;;;1.90;;
40945;SDS011;55635;50.264;11.918;2023-11-18T13:16:46;2.00;;;1.88;;
40945;SDS011;55635;50.264;11.918;2023-11-18T13:19:27;4.00;;;2.25;;
40945;SDS011;55635;50.264;11.918;2023-11-18T13:22:10;2.60;;;2.40;;
40945;SDS011;55635;50.264;11.918;2023-11-18T13:24:52;4.78;;;2.80;;
40945;SDS011;55635;50.264;11.918;2023-11-18T13:27:33;6.28;;;3.25;;
40945;SDS011;55635;50.264;11.918;2023-11-18T13:30:16;3.40;;;3.10;;
40945;SDS011;55635;50.264;11.918;2023-11-18T13:32:58;3.75;;;3.40;;
40945;SDS011;55635;50.264;11.918;2023-11-18T13:35:39;4.10;;;3.47;;
40945;SDS011;55635;50.264;11.918;2023-11-18T13:38:23;4.88;;;3.55;;
40945;SDS011;55635;50.264;11.918;2023-11-18T13:41:04;6.88;;;3.78;;
40945;SDS011;55635;50.264;11.918;2023-11-18T13:43:48;4.80;;;3.80;;
40945;SDS011;55635;50.264;11.918;2023-11-18T13:46:29;5.68;;;4.43;;
40945;SDS011;55635;50.264;11.918;2023-11-18T13:49:10;7.00;;;4.78;;
40945;SDS011;55635;50.264;11.918;2023-11-18T13:51:52;8.07;;;4.78;;
40945;SDS011;55635;50.264;11.918;2023-11-18T13:54:33;5.57;;;4.20;;
40945;SDS011;55635;50.264;11.918;2023-11-18T13:57:15;8.00;;;5.13;;
40945;SDS011;55635;50.264;11.918;2023-11-18T13:59:56;6.50;;;5.38;;
40945;SDS011;55635;50.264;11.918;2023-11-18T14:02:38;7.68;;;5.60;;
40945;SDS011;55635;50.264;11.918;2023-11-18T14:05:20;6.45;;;5.75;;
40945;SDS011;55635;50.264;11.918;2023-11-18T14:08:04;8.07;;;6.85;;
40945;SDS011;55635;50.264;11.918;2023-11-18T14:10:48;7.38;;;6.60;;
40945;SDS011;55635;50.264;11.918;2023-11-18T14:13:29;7.57;;;6.18;;
40945;SDS011;55635;50.264;11.918;2023-11-18T14:16:11;7.38;;;6.50;;
40945;SDS011;55635;50.264;11.918;2023-11-18T14:18:52;10.55;;;6.70;;
40945;SDS011;55635;50.264;11.918;2023-11-18T14:21:33;11.35;;;6.85;;
40945;SDS011;55635;50.264;11.918;2023-11-18T14:24:14;10.13;;;8.18;;
40945;SDS011;55635;50.264;11.918;2023-11-18T14:26:55;10.38;;;7.80;;
40945;SDS011;55635;50.264;11.918;2023-11-18T14:29:37;13.80;;;7.90;;
40945;SDS011;55635;50.264;11.918;2023-11-18T14:32:17;12.50;;;8.18;;
40945;SDS011;55635;50.264;11.918;2023-11-18T14:34:59;10.80;;;8.38;;
40945;SDS011;55635;50.264;11.918;2023-11-18T14:37:40;13.18;;;8.25;;
40945;SDS011;55635;50.264;11.918;2023-11-18T14:40:21;13.98;;;10.20;;
40945;SDS011;55635;50.264;11.918;2023-11-18T14:43:05;18.25;;;13.77;;
40945;SDS011;55635;50.264;11.918;2023-11-18T14:45:47;12.07;;;9.02;;
40945;SDS011;55635;50.264;11.918;2023-11-18T14:48:28;11.70;;;9.35;;
40945;SDS011;55635;50.264;11.918;2023-11-18T14:51:10;13.07;;;9.65;;
40945;SDS011;55635;50.264;11.918;2023-11-18T14:53:51;14.55;;;9.38;;
40945;SDS011;55635;50.264;11.918;2023-11-18T14:56:32;13.27;;;9.80;;
40945;SDS011;55635;50.264;11.918;2023-11-18T14:59:15;13.55;;;9.45;;
40945;SDS011;55635;50.264;11.918;2023-11-18T15:01:56;11.25;;;9.05;;
40945;SDS011;55635;50.264;11.918;2023-11-18T15:04:38;12.93;;;9.40;;
40945;SDS011;55635;50.264;11.918;2023-11-18T15:07:19;14.55;;;9.52;;
40945;SDS011;55635;50.264;11.918;2023-11-18T15:10:01;12.43;;;9.13;;
40945;SDS011;55635;50.264;11.918;2023-11-18T15:12:43;15.32;;;10.50;;
40945;SDS011;55635;50.264;11.918;2023-11-18T15:15:25;12.25;;;9.65;;
40945;SDS011;55635;50.264;11.918;2023-11-18T15:20:57;13.88;;;10.05;;
40945;SDS011;55635;50.264;11.918;2023-11-18T15:23:38;15.98;;;10.48;;
40945;SDS011;55635;50.264;11.918;2023-11-18T15:26:19;14.63;;;10.60;;
40945;SDS011;55635;50.264;11.918;2023-11-18T15:29:00;14.48;;;10.02;;
40945;SDS011;55635;50.264;11.918;2023-11-18T15:31:43;14.77;;;11.10;;
40945;SDS011;55635;50.264;11.918;2023-11-18T15:34:25;16.48;;;11.05;;
40945;SDS011;55635;50.264;11.918;2023-11-18T15:37:06;17.85;;;10.88;;
40945;SDS011;55635;50.264;11.918;2023-11-18T15:39:49;15.65;;;10.68;;
40945;SDS011;55635;50.264;11.918;2023-11-18T15:42:30;16.85;;;10.70;;
40945;SDS011;55635;50.264;11.918;2023-11-18T15:45:13;14.60;;;10.88;;
40945;SDS011;55635;50.264;11.918;2023-11-18T15:47:56;15.50;;;10.63;;
40945;SDS011;55635;50.264;11.918;2023-11-18T15:50:39;16.55;;;9.93;;
40945;SDS011;55635;50.264;11.918;2023-11-18T15:53:21;16.15;;;11.13;;
40945;SDS011;55635;50.264;11.918;2023-11-18T15:56:03;16.70;;;10.55;;
40945;SDS011;55635;50.264;11.918;2023-11-18T15:58:45;17.48;;;11.20;;
40945;SDS011;55635;50.264;11.918;2023-11-18T16:01:26;17.40;;;11.45;;
40945;SDS011;55635;50.264;11.918;2023-11-18T16:04:07;15.05;;;10.32;;
40945;SDS011;55635;50.264;11.918;2023-11-18T16:06:48;16.65;;;11.18;;
40945;SDS011;55635;50.264;11.918;2023-11-18T16:09:30;17.20;;;11.60;;
40945;SDS011;55635;50.264;11.918;2023-11-18T16:12:11;17.80;;;10.73;;
40945;SDS011;55635;50.264;11.918;2023-11-18T16:14:52;14.23;;;9.48;;
40945;SDS011;55635;50.264;11.918;2023-11-18T16:17:33;18.77;;;9.73;;
40945;SDS011;55635;50.264;11.918;2023-11-18T16:20:15;11.80;;;9.07;;
40945;SDS011;55635;50.264;11.918;2023-11-18T16:22:58;11.57;;;7.72;;
40945;SDS011;55635;50.264;11.918;2023-11-18T16:25:42;13.40;;;8.20;;
40945;SDS011;55635;50.264;11.918;2023-11-18T16:28:23;11.98;;;7.82;;
40945;SDS011;55635;50.264;11.918;2023-11-18T16:31:05;11.57;;;8.02;;
40945;SDS011;55635;50.264;11.918;2023-11-18T16:33:46;12.88;;;8.93;;